AVA225 SACO-SCSE
Flight info
| Callsign | AVA225 |
|---|---|
| Flight time | 1h 17m |
| Altitude | 32000 |
| Route | PAMAK1C PAMAK UW24 JUA UL416 MIBAS MIBAS4B |
| Aircraft | A320/M-SDE3FGHIRWY/LB1 |
Departure
| Time | 2026-05-05 17:52 |
|---|---|
| Airport | Ingeniero Aeronáutico Ambrosio L.V. Taravella International Airport (SACO) |
Arrival
| Time | 2026-05-05 19:10 |
|---|---|
| Airport | La Florida Airport (SCSE) |
| Time | Latitude | Longitude | Altitude | Speed | Heading |
|---|---|---|---|---|---|
| 2026-05-05 16:55 | -31.31552 | -64.21171 | 1613 ft | 0 kts | 258° |
| 2026-05-05 17:42 | -31.31551 | -64.21165 | 1613 ft | 4 kts | 259° |
| 2026-05-05 17:43 | -31.31549 | -64.21140 | 1617 ft | 4 kts | 245° |
| 2026-05-05 17:43 | -31.31554 | -64.21132 | 1613 ft | 4 kts | 180° |
| 2026-05-05 17:43 | -31.31542 | -64.21130 | 1619 ft | 4 kts | 212° |
| 2026-05-05 17:43 | -31.31524 | -64.21112 | 1615 ft | 4 kts | 239° |
| 2026-05-05 17:44 | -31.31517 | -64.21084 | 1622 ft | 4 kts | 258° |
| 2026-05-05 17:44 | -31.31517 | -64.21076 | 1618 ft | 1 kts | 188° |
| 2026-05-05 17:44 | -31.31513 | -64.21075 | 1621 ft | 0 kts | 188° |
| 2026-05-05 17:47 | -31.31523 | -64.21077 | 1613 ft | 2 kts | 190° |
| 2026-05-05 17:48 | -31.31546 | -64.21087 | 1620 ft | 5 kts | 204° |
| 2026-05-05 17:48 | -31.31590 | -64.21100 | 1620 ft | 8 kts | 184° |
| 2026-05-05 17:48 | -31.31659 | -64.21100 | 1613 ft | 12 kts | 181° |
| 2026-05-05 17:48 | -31.31745 | -64.21070 | 1615 ft | 15 kts | 143° |
| 2026-05-05 17:49 | -31.31853 | -64.21029 | 1621 ft | 18 kts | 178° |
| 2026-05-05 17:49 | -31.31993 | -64.21028 | 1620 ft | 22 kts | 180° |
| 2026-05-05 17:49 | -31.32155 | -64.21023 | 1619 ft | 25 kts | 179° |
| 2026-05-05 17:49 | -31.32319 | -64.21019 | 1617 ft | 14 kts | 179° |
| 2026-05-05 17:50 | -31.32349 | -64.21019 | 1616 ft | 9 kts | 178° |
| 2026-05-05 17:50 | -31.32400 | -64.21001 | 1620 ft | 7 kts | 148° |
| 2026-05-05 17:50 | -31.32427 | -64.20961 | 1621 ft | 8 kts | 115° |
| 2026-05-05 17:50 | -31.32440 | -64.20882 | 1618 ft | 12 kts | 96° |
| 2026-05-05 17:51 | -31.32441 | -64.20813 | 1614 ft | 6 kts | 58° |
| 2026-05-05 17:51 | -31.32417 | -64.20812 | 1611 ft | 0 kts | 353° |
| 2026-05-05 17:52 | -31.32272 | -64.20816 | 1615 ft | 57 kts | 0° |
| 2026-05-05 17:52 | -31.31649 | -64.20828 | 1616 ft | 119 kts | 358° |
| 2026-05-05 17:52 | -31.30639 | -64.20844 | 1671 ft | 165 kts | 358° |
| 2026-05-05 17:52 | -31.29517 | -64.20893 | 2363 ft | 161 kts | 359° |
| 2026-05-05 17:53 | -31.28383 | -64.20914 | 2996 ft | 169 kts | 359° |
| 2026-05-05 17:53 | -31.27142 | -64.20928 | 3309 ft | 189 kts | 359° |
| 2026-05-05 17:53 | -31.25765 | -64.20940 | 3573 ft | 212 kts | 359° |
| 2026-05-05 17:53 | -31.24209 | -64.20958 | 3920 ft | 236 kts | 359° |
| 2026-05-05 17:54 | -31.22496 | -64.20984 | 4378 ft | 255 kts | 359° |
| 2026-05-05 17:54 | -31.20705 | -64.21026 | 5180 ft | 260 kts | 355° |
| 2026-05-05 17:54 | -31.18980 | -64.21641 | 6004 ft | 265 kts | 329° |
| 2026-05-05 17:54 | -31.17504 | -64.22939 | 6863 ft | 267 kts | 323° |
| 2026-05-05 17:55 | -31.16044 | -64.24300 | 7679 ft | 271 kts | 323° |
| 2026-05-05 17:55 | -31.14568 | -64.25680 | 8464 ft | 275 kts | 323° |
| 2026-05-05 17:55 | -31.13200 | -64.27252 | 9202 ft | 281 kts | 308° |
| 2026-05-05 17:55 | -31.12277 | -64.29279 | 9912 ft | 288 kts | 290° |
| 2026-05-05 17:56 | -31.11931 | -64.31605 | 10503 ft | 300 kts | 273° |
| 2026-05-05 17:56 | -31.11909 | -64.34126 | 10678 ft | 322 kts | 271° |
| 2026-05-05 17:56 | -31.11912 | -64.36825 | 10810 ft | 344 kts | 270° |
| 2026-05-05 17:56 | -31.11921 | -64.39687 | 11036 ft | 360 kts | 270° |
| 2026-05-05 17:57 | -31.11929 | -64.42634 | 11568 ft | 366 kts | 270° |
| 2026-05-05 17:57 | -31.11932 | -64.45609 | 12232 ft | 369 kts | 269° |
| 2026-05-05 17:57 | -31.11928 | -64.48601 | 12898 ft | 370 kts | 269° |
| 2026-05-05 17:57 | -31.11967 | -64.51602 | 13529 ft | 371 kts | 265° |
| 2026-05-05 17:58 | -31.12408 | -64.54564 | 14127 ft | 372 kts | 257° |
| 2026-05-05 17:58 | -31.13011 | -64.57501 | 14746 ft | 374 kts | 257° |
| 2026-05-05 17:58 | -31.13623 | -64.60453 | 15326 ft | 376 kts | 257° |
| 2026-05-05 17:58 | -31.14240 | -64.63418 | 15891 ft | 378 kts | 257° |
| 2026-05-05 17:59 | -31.14860 | -64.66400 | 16469 ft | 379 kts | 257° |
| 2026-05-05 17:59 | -31.15479 | -64.69386 | 17033 ft | 380 kts | 257° |
| 2026-05-05 17:59 | -31.16097 | -64.72393 | 17537 ft | 383 kts | 257° |
| 2026-05-05 17:59 | -31.16670 | -64.75196 | 18034 ft | 385 kts | 258° |
| 2026-05-05 18:00 | -31.17294 | -64.78236 | 18567 ft | 386 kts | 258° |
| 2026-05-05 18:00 | -31.17921 | -64.81287 | 19073 ft | 388 kts | 258° |
| 2026-05-05 18:00 | -31.18549 | -64.84353 | 19580 ft | 390 kts | 258° |
| 2026-05-05 18:00 | -31.19177 | -64.87433 | 20076 ft | 392 kts | 258° |
| 2026-05-05 18:01 | -31.19862 | -64.90520 | 20552 ft | 395 kts | 253° |
| 2026-05-05 18:01 | -31.20959 | -64.93472 | 21023 ft | 400 kts | 244° |
| 2026-05-05 18:01 | -31.22425 | -64.96248 | 21467 ft | 404 kts | 241° |
| 2026-05-05 18:01 | -31.23928 | -64.99024 | 21910 ft | 406 kts | 241° |
| 2026-05-05 18:02 | -31.25436 | -65.01814 | 22350 ft | 408 kts | 241° |
| 2026-05-05 18:02 | -31.26946 | -65.04615 | 22767 ft | 410 kts | 241° |
| 2026-05-05 18:02 | -31.28081 | -65.06727 | 23066 ft | 411 kts | 242° |
| 2026-05-05 18:02 | -31.28489 | -65.07487 | 23184 ft | 411 kts | 242° |
| 2026-05-05 18:03 | -31.29645 | -65.09639 | 23473 ft | 413 kts | 242° |
| 2026-05-05 18:03 | -31.31196 | -65.12522 | 23851 ft | 415 kts | 242° |
| 2026-05-05 18:03 | -31.32734 | -65.15380 | 24240 ft | 417 kts | 242° |
| 2026-05-05 18:03 | -31.34221 | -65.18144 | 24597 ft | 419 kts | 242° |
| 2026-05-05 18:04 | -31.35636 | -65.20776 | 24925 ft | 420 kts | 242° |
| 2026-05-05 18:04 | -31.37152 | -65.23607 | 25262 ft | 422 kts | 243° |
| 2026-05-05 18:04 | -31.38434 | -65.26657 | 25600 ft | 417 kts | 253° |
| 2026-05-05 18:04 | -31.39155 | -65.29924 | 25942 ft | 415 kts | 263° |
| 2026-05-05 18:05 | -31.39408 | -65.33232 | 26310 ft | 413 kts | 267° |
| 2026-05-05 18:05 | -31.39495 | -65.34885 | 26561 ft | 411 kts | 268° |
| 2026-05-05 18:05 | -31.39633 | -65.37167 | 26874 ft | 411 kts | 267° |
| 2026-05-05 18:05 | -31.39803 | -65.39735 | 27136 ft | 412 kts | 266° |
| 2026-05-05 18:06 | -31.40039 | -65.43073 | 27471 ft | 412 kts | 266° |
| 2026-05-05 18:06 | -31.40198 | -65.45300 | 27675 ft | 413 kts | 266° |
| 2026-05-05 18:06 | -31.40511 | -65.49755 | 28151 ft | 412 kts | 267° |
| 2026-05-05 18:06 | -31.40737 | -65.53082 | 28570 ft | 410 kts | 267° |
| 2026-05-05 18:07 | -31.40957 | -65.56394 | 28975 ft | 408 kts | 267° |
| 2026-05-05 18:07 | -31.41113 | -65.58792 | 29257 ft | 407 kts | 267° |
| 2026-05-05 18:07 | -31.41325 | -65.62076 | 29640 ft | 405 kts | 267° |
| 2026-05-05 18:07 | -31.41536 | -65.65349 | 30022 ft | 403 kts | 267° |
| 2026-05-05 18:08 | -31.41744 | -65.68605 | 30395 ft | 401 kts | 267° |
| 2026-05-05 18:08 | -31.41951 | -65.71853 | 30752 ft | 400 kts | 267° |
| 2026-05-05 18:08 | -31.42157 | -65.75088 | 31122 ft | 398 kts | 267° |
| 2026-05-05 18:08 | -31.42361 | -65.78306 | 31507 ft | 396 kts | 267° |
| 2026-05-05 18:09 | -31.42562 | -65.81505 | 31889 ft | 394 kts | 267° |
| 2026-05-05 18:09 | -31.42760 | -65.84692 | 32288 ft | 392 kts | 267° |
| 2026-05-05 18:09 | -31.42958 | -65.87855 | 32677 ft | 389 kts | 267° |
| 2026-05-05 18:09 | -31.43155 | -65.90997 | 33052 ft | 387 kts | 267° |
| 2026-05-05 18:10 | -31.43333 | -65.93854 | 33389 ft | 385 kts | 267° |
| 2026-05-05 18:10 | -31.43528 | -65.96965 | 33754 ft | 382 kts | 267° |
| 2026-05-05 18:10 | -31.43720 | -66.00055 | 34116 ft | 380 kts | 267° |
| 2026-05-05 18:10 | -31.43909 | -66.03124 | 34475 ft | 378 kts | 267° |
| 2026-05-05 18:11 | -31.44097 | -66.06180 | 34798 ft | 376 kts | 267° |
| 2026-05-05 18:11 | -31.44282 | -66.09223 | 35116 ft | 374 kts | 267° |
| 2026-05-05 18:11 | -31.44467 | -66.12251 | 35405 ft | 373 kts | 267° |
| 2026-05-05 18:11 | -31.44652 | -66.15266 | 35682 ft | 372 kts | 267° |
| 2026-05-05 18:12 | -31.44835 | -66.18275 | 35881 ft | 371 kts | 267° |
| 2026-05-05 18:12 | -31.45195 | -66.24307 | 35934 ft | 373 kts | 267° |
| 2026-05-05 18:13 | -31.45556 | -66.30351 | 35934 ft | 373 kts | 267° |
| 2026-05-05 18:13 | -31.45914 | -66.36402 | 35933 ft | 373 kts | 267° |
| 2026-05-05 18:14 | -31.46268 | -66.42450 | 35924 ft | 373 kts | 267° |
| 2026-05-05 18:14 | -31.46626 | -66.48467 | 35924 ft | 373 kts | 267° |
| 2026-05-05 18:15 | -31.46963 | -66.54257 | 35923 ft | 373 kts | 267° |
| 2026-05-05 18:15 | -31.47305 | -66.60305 | 35927 ft | 373 kts | 267° |
| 2026-05-05 18:16 | -31.47644 | -66.66352 | 35929 ft | 373 kts | 267° |
| 2026-05-05 18:16 | -31.47988 | -66.72400 | 35931 ft | 373 kts | 268° |
| 2026-05-05 18:17 | -31.48295 | -66.77925 | 35925 ft | 373 kts | 268° |
| 2026-05-05 18:17 | -31.48630 | -66.83974 | 35923 ft | 372 kts | 268° |
| 2026-05-05 18:18 | -31.48961 | -66.90017 | 35927 ft | 373 kts | 268° |
| 2026-05-05 18:18 | -31.49203 | -66.94449 | 35931 ft | 373 kts | 268° |
| 2026-05-05 18:20 | -31.49440 | -66.98870 | 35922 ft | 374 kts | 268° |
| 2026-05-05 18:20 | -31.49767 | -67.04911 | 35924 ft | 373 kts | 268° |
| 2026-05-05 18:21 | -31.49936 | -67.08061 | 35927 ft | 373 kts | 268° |
| 2026-05-05 18:21 | -31.50203 | -67.13077 | 35927 ft | 374 kts | 268° |
| 2026-05-05 18:22 | -31.50521 | -67.19111 | 35927 ft | 374 kts | 268° |
| 2026-05-05 18:22 | -31.50841 | -67.25179 | 35923 ft | 374 kts | 268° |
| 2026-05-05 18:23 | -31.51160 | -67.31243 | 35925 ft | 374 kts | 268° |
| 2026-05-05 18:23 | -31.51466 | -67.37281 | 35924 ft | 374 kts | 268° |
| 2026-05-05 18:24 | -31.51775 | -67.43349 | 35921 ft | 374 kts | 268° |
| 2026-05-05 18:24 | -31.52083 | -67.49368 | 35919 ft | 374 kts | 268° |
| 2026-05-05 18:25 | -31.52385 | -67.55447 | 35918 ft | 375 kts | 269° |
| 2026-05-05 18:25 | -31.52674 | -67.61372 | 35915 ft | 375 kts | 269° |
| 2026-05-05 18:26 | -31.52970 | -67.67462 | 35913 ft | 375 kts | 269° |
| 2026-05-05 18:26 | -31.53261 | -67.73558 | 35915 ft | 375 kts | 269° |
| 2026-05-05 18:27 | -31.53554 | -67.79623 | 35915 ft | 375 kts | 269° |
| 2026-05-05 18:27 | -31.53838 | -67.85721 | 35917 ft | 376 kts | 269° |
| 2026-05-05 18:28 | -31.54276 | -67.94900 | 35920 ft | 377 kts | 269° |
| 2026-05-05 18:28 | -31.54563 | -68.01021 | 35917 ft | 377 kts | 269° |
| 2026-05-05 18:29 | -31.54832 | -68.06819 | 35919 ft | 377 kts | 269° |
| 2026-05-05 18:29 | -31.55076 | -68.12178 | 35921 ft | 377 kts | 269° |
| 2026-05-05 18:30 | -31.55347 | -68.18274 | 35921 ft | 377 kts | 269° |
| 2026-05-05 18:30 | -31.55402 | -68.19509 | 35925 ft | 377 kts | 269° |
| 2026-05-05 18:31 | -31.55459 | -68.20177 | 35930 ft | 377 kts | 258° |
| 2026-05-05 18:31 | -31.56505 | -68.22756 | 36218 ft | 379 kts | 249° |
| 2026-05-05 18:31 | -31.57274 | -68.25335 | 36317 ft | 369 kts | 266° |
| 2026-05-05 18:31 | -31.57291 | -68.28214 | 36329 ft | 370 kts | 277° |
| 2026-05-05 18:32 | -31.56627 | -68.34222 | 36329 ft | 373 kts | 278° |
| 2026-05-05 18:32 | -31.56025 | -68.40237 | 35932 ft | 370 kts | 278° |
| 2026-05-05 18:33 | -31.54690 | -68.46072 | 35928 ft | 376 kts | 292° |
| 2026-05-05 18:33 | -31.52415 | -68.51594 | 35922 ft | 377 kts | 293° |
| 2026-05-05 18:34 | -31.50112 | -68.57100 | 35928 ft | 377 kts | 293° |
| 2026-05-05 18:34 | -31.47879 | -68.62384 | 35924 ft | 377 kts | 293° |
| 2026-05-05 18:35 | -31.45548 | -68.67860 | 35931 ft | 376 kts | 293° |
| 2026-05-05 18:35 | -31.43226 | -68.73327 | 35931 ft | 376 kts | 293° |
| 2026-05-05 18:36 | -31.40913 | -68.78790 | 35931 ft | 375 kts | 293° |
| 2026-05-05 18:36 | -31.38605 | -68.84243 | 35929 ft | 374 kts | 293° |
| 2026-05-05 18:37 | -31.36291 | -68.89690 | 35926 ft | 375 kts | 293° |
| 2026-05-05 18:37 | -31.33971 | -68.95133 | 35926 ft | 375 kts | 293° |
| 2026-05-05 18:38 | -31.31647 | -69.00581 | 35930 ft | 374 kts | 293° |
| 2026-05-05 18:38 | -31.29328 | -69.06016 | 35929 ft | 374 kts | 293° |
| 2026-05-05 18:39 | -31.27008 | -69.11442 | 35922 ft | 372 kts | 294° |
| 2026-05-05 18:39 | -31.24693 | -69.16843 | 35914 ft | 373 kts | 293° |
| 2026-05-05 18:40 | -31.22369 | -69.22259 | 35925 ft | 373 kts | 294° |
| 2026-05-05 18:40 | -31.20047 | -69.27667 | 35930 ft | 373 kts | 294° |
| 2026-05-05 18:41 | -31.17739 | -69.33088 | 35931 ft | 373 kts | 292° |
| 2026-05-05 18:41 | -31.16490 | -69.36258 | 35934 ft | 372 kts | 292° |
| 2026-05-05 18:42 | -31.14477 | -69.41579 | 35936 ft | 372 kts | 291° |
| 2026-05-05 18:42 | -31.12432 | -69.47059 | 35935 ft | 371 kts | 291° |
| 2026-05-05 18:43 | -31.10344 | -69.52550 | 35937 ft | 371 kts | 291° |
| 2026-05-05 18:43 | -31.08236 | -69.58020 | 35937 ft | 370 kts | 291° |
| 2026-05-05 18:44 | -31.06144 | -69.63492 | 35938 ft | 370 kts | 291° |
| 2026-05-05 18:44 | -31.04030 | -69.68956 | 35941 ft | 370 kts | 292° |
| 2026-05-05 18:45 | -31.01807 | -69.74369 | 35950 ft | 371 kts | 294° |
| 2026-05-05 18:45 | -30.99494 | -69.79727 | 35962 ft | 371 kts | 294° |
| 2026-05-05 18:46 | -30.97185 | -69.85083 | 35966 ft | 370 kts | 294° |
| 2026-05-05 18:46 | -30.94893 | -69.90450 | 35969 ft | 371 kts | 294° |
| 2026-05-05 18:47 | -30.92609 | -69.95819 | 35974 ft | 371 kts | 293° |
| 2026-05-05 18:47 | -30.90326 | -70.01185 | 35983 ft | 371 kts | 293° |
| 2026-05-05 18:48 | -30.88044 | -70.06528 | 35999 ft | 371 kts | 294° |
| 2026-05-05 18:48 | -30.86905 | -70.09187 | 35811 ft | 364 kts | 294° |
| 2026-05-05 18:48 | -30.85793 | -70.11776 | 35561 ft | 353 kts | 294° |
| 2026-05-05 18:49 | -30.84709 | -70.14300 | 35307 ft | 347 kts | 294° |
| 2026-05-05 18:49 | -30.83640 | -70.16798 | 35094 ft | 345 kts | 294° |
| 2026-05-05 18:49 | -30.82577 | -70.19279 | 34847 ft | 342 kts | 294° |
| 2026-05-05 18:49 | -30.81519 | -70.21743 | 34594 ft | 340 kts | 294° |
| 2026-05-05 18:50 | -30.80466 | -70.24196 | 34020 ft | 340 kts | 294° |
| 2026-05-05 18:50 | -30.79410 | -70.26657 | 33339 ft | 341 kts | 294° |
| 2026-05-05 18:50 | -30.78358 | -70.29101 | 32719 ft | 339 kts | 294° |
| 2026-05-05 18:50 | -30.77315 | -70.31529 | 32000 ft | 333 kts | 294° |
| 2026-05-05 18:51 | -30.76295 | -70.33919 | 31165 ft | 329 kts | 294° |
| 2026-05-05 18:51 | -30.75537 | -70.35706 | 30498 ft | 326 kts | 294° |
| 2026-05-05 18:51 | -30.74541 | -70.38064 | 29567 ft | 325 kts | 294° |
| 2026-05-05 18:51 | -30.73555 | -70.40403 | 28630 ft | 322 kts | 293° |
| 2026-05-05 18:52 | -30.72571 | -70.42723 | 27694 ft | 320 kts | 295° |
| 2026-05-05 18:52 | -30.71585 | -70.45024 | 26866 ft | 317 kts | 295° |
| 2026-05-05 18:52 | -30.70609 | -70.47305 | 25996 ft | 315 kts | 294° |
| 2026-05-05 18:52 | -30.69638 | -70.49576 | 25153 ft | 313 kts | 294° |
| 2026-05-05 18:53 | -30.68676 | -70.51830 | 24285 ft | 311 kts | 294° |
| 2026-05-05 18:53 | -30.67721 | -70.54073 | 23502 ft | 309 kts | 294° |
| 2026-05-05 18:53 | -30.66773 | -70.56303 | 22681 ft | 308 kts | 295° |
| 2026-05-05 18:53 | -30.65828 | -70.58525 | 21919 ft | 305 kts | 295° |
| 2026-05-05 18:54 | -30.64889 | -70.60734 | 21334 ft | 308 kts | 295° |
| 2026-05-05 18:54 | -30.63940 | -70.62970 | 20867 ft | 308 kts | 295° |
| 2026-05-05 18:54 | -30.62998 | -70.65187 | 20271 ft | 308 kts | 295° |
| 2026-05-05 18:54 | -30.62059 | -70.67384 | 19672 ft | 304 kts | 296° |
| 2026-05-05 18:55 | -30.61594 | -70.68471 | 19390 ft | 306 kts | 296° |
| 2026-05-05 18:55 | -30.60770 | -70.70392 | 19035 ft | 304 kts | 296° |
| 2026-05-05 18:55 | -30.59825 | -70.72591 | 18639 ft | 303 kts | 296° |
| 2026-05-05 18:55 | -30.58897 | -70.74757 | 18089 ft | 297 kts | 296° |
| 2026-05-05 18:56 | -30.58002 | -70.76912 | 17511 ft | 295 kts | 296° |
| 2026-05-05 18:56 | -30.57129 | -70.79061 | 17145 ft | 295 kts | 295° |
| 2026-05-05 18:56 | -30.56259 | -70.81210 | 16774 ft | 295 kts | 296° |
| 2026-05-05 18:56 | -30.55389 | -70.83349 | 16397 ft | 293 kts | 296° |
| 2026-05-05 18:57 | -30.54515 | -70.85483 | 16019 ft | 294 kts | 296° |
| 2026-05-05 18:57 | -30.53649 | -70.87598 | 15646 ft | 295 kts | 296° |
| 2026-05-05 18:57 | -30.52760 | -70.89754 | 15262 ft | 296 kts | 297° |
| 2026-05-05 18:57 | -30.51842 | -70.91884 | 14896 ft | 295 kts | 297° |
| 2026-05-05 18:58 | -30.50905 | -70.94003 | 14488 ft | 296 kts | 298° |
| 2026-05-05 18:58 | -30.49961 | -70.96121 | 14097 ft | 297 kts | 298° |
| 2026-05-05 18:58 | -30.49018 | -70.98233 | 13743 ft | 296 kts | 298° |
| 2026-05-05 18:58 | -30.48086 | -71.00329 | 13388 ft | 296 kts | 298° |
| 2026-05-05 18:59 | -30.47157 | -71.02425 | 13088 ft | 293 kts | 298° |
| 2026-05-05 18:59 | -30.46229 | -71.04523 | 12597 ft | 291 kts | 298° |
| 2026-05-05 18:59 | -30.45312 | -71.06596 | 12187 ft | 290 kts | 299° |
| 2026-05-05 18:59 | -30.44396 | -71.08670 | 11799 ft | 290 kts | 298° |
| 2026-05-05 19:00 | -30.43308 | -71.10610 | 11415 ft | 287 kts | 314° |
| 2026-05-05 19:00 | -30.41754 | -71.12001 | 11046 ft | 286 kts | 333° |
| 2026-05-05 19:00 | -30.39870 | -71.12707 | 10615 ft | 288 kts | 352° |
| 2026-05-05 19:00 | -30.37872 | -71.12710 | 10224 ft | 289 kts | 2° |
| 2026-05-05 19:01 | -30.35871 | -71.12586 | 9838 ft | 288 kts | 2° |
| 2026-05-05 19:01 | -30.33879 | -71.12468 | 9460 ft | 287 kts | 2° |
| 2026-05-05 19:01 | -30.31891 | -71.12355 | 9079 ft | 286 kts | 2° |
| 2026-05-05 19:01 | -30.29919 | -71.12242 | 8705 ft | 285 kts | 2° |
| 2026-05-05 19:02 | -30.27949 | -71.12126 | 8336 ft | 283 kts | 2° |
| 2026-05-05 19:02 | -30.25992 | -71.12014 | 7969 ft | 282 kts | 2° |
| 2026-05-05 19:02 | -30.24044 | -71.11903 | 7588 ft | 279 kts | 2° |
| 2026-05-05 19:02 | -30.22119 | -71.11764 | 7231 ft | 277 kts | 4° |
| 2026-05-05 19:03 | -30.20210 | -71.11600 | 6873 ft | 272 kts | 4° |
| 2026-05-05 19:03 | -30.18370 | -71.11433 | 6531 ft | 260 kts | 4° |
| 2026-05-05 19:03 | -30.16609 | -71.11275 | 6263 ft | 250 kts | 4° |
| 2026-05-05 19:03 | -30.14883 | -71.11122 | 5972 ft | 248 kts | 4° |
| 2026-05-05 19:04 | -30.13173 | -71.10963 | 5710 ft | 245 kts | 7° |
| 2026-05-05 19:04 | -30.11544 | -71.10461 | 5459 ft | 242 kts | 23° |
| 2026-05-05 19:04 | -30.10102 | -71.09523 | 5222 ft | 235 kts | 31° |
| 2026-05-05 19:04 | -30.08746 | -71.08574 | 4990 ft | 222 kts | 30° |
| 2026-05-05 19:05 | -30.07462 | -71.07679 | 4759 ft | 215 kts | 30° |
| 2026-05-05 19:05 | -30.06194 | -71.06797 | 4547 ft | 212 kts | 30° |
| 2026-05-05 19:05 | -30.04943 | -71.05929 | 4310 ft | 211 kts | 30° |
| 2026-05-05 19:05 | -30.03677 | -71.05114 | 4072 ft | 209 kts | 22° |
| 2026-05-05 19:06 | -30.02288 | -71.04665 | 3807 ft | 206 kts | 6° |
| 2026-05-05 19:06 | -30.00914 | -71.04653 | 3563 ft | 192 kts | 352° |
| 2026-05-05 19:06 | -29.99668 | -71.05008 | 3313 ft | 180 kts | 338° |
| 2026-05-05 19:06 | -29.98584 | -71.05641 | 3082 ft | 170 kts | 325° |
| 2026-05-05 19:07 | -29.97703 | -71.06480 | 2882 ft | 160 kts | 313° |
| 2026-05-05 19:07 | -29.97024 | -71.07470 | 2673 ft | 156 kts | 302° |
| 2026-05-05 19:07 | -29.96528 | -71.08561 | 2469 ft | 153 kts | 295° |
| 2026-05-05 19:07 | -29.96063 | -71.09651 | 2271 ft | 152 kts | 295° |
| 2026-05-05 19:08 | -29.95643 | -71.10632 | 2088 ft | 151 kts | 295° |
| 2026-05-05 19:08 | -29.95172 | -71.11729 | 1881 ft | 150 kts | 295° |
| 2026-05-05 19:08 | -29.94712 | -71.12797 | 1692 ft | 149 kts | 295° |
| 2026-05-05 19:08 | -29.94258 | -71.13853 | 1494 ft | 147 kts | 295° |
| 2026-05-05 19:09 | -29.93807 | -71.14908 | 1292 ft | 147 kts | 295° |
| 2026-05-05 19:09 | -29.93358 | -71.15959 | 1095 ft | 146 kts | 295° |
| 2026-05-05 19:09 | -29.92909 | -71.17004 | 912 ft | 146 kts | 295° |
| 2026-05-05 19:09 | -29.92462 | -71.18045 | 726 ft | 146 kts | 296° |
| 2026-05-05 19:10 | -29.92009 | -71.19092 | 489 ft | 144 kts | 295° |
| 2026-05-05 19:10 | -29.91640 | -71.19963 | 478 ft | 84 kts | 297° |
| 2026-05-05 19:10 | -29.91538 | -71.20202 | 480 ft | 11 kts | 291° |
| 2026-05-05 19:10 | -29.91554 | -71.20270 | 478 ft | 8 kts | 220° |
| 2026-05-05 19:11 | -29.91557 | -71.20273 | 481 ft | 0 kts | 219° |
| 2026-05-05 19:11 | -29.91559 | -71.20275 | 481 ft | 2 kts | 219° |
| 2026-05-05 19:11 | -29.91580 | -71.20289 | 481 ft | 6 kts | 210° |
| 2026-05-05 19:12 | -29.91602 | -71.20302 | 477 ft | 1 kts | 206° |
| 2026-05-05 19:12 | -29.91609 | -71.20306 | 478 ft | 1 kts | 205° |
| 2026-05-05 19:12 | -29.91613 | -71.20309 | 472 ft | 0 kts | 205° |
| 2026-05-05 19:12 | -29.91614 | -71.20309 | 475 ft | 0 kts | 205° |
| 2026-05-05 19:13 | -29.91628 | -71.20317 | 480 ft | 6 kts | 207° |
| 2026-05-05 19:13 | -29.91637 | -71.20323 | 480 ft | 6 kts | 209° |
| 2026-05-05 19:13 | -29.91657 | -71.20334 | 475 ft | 5 kts | 206° |
| 2026-05-05 19:14 | -29.91666 | -71.20340 | 477 ft | 1 kts | 205° |
| 2026-05-05 19:14 | -29.91667 | -71.20340 | 477 ft | 0 kts | 206° |